Main page
METAR-TAF:

METAR-TAF

Airports :

Stornoway Airport

Stornoway, Scotland

latitude: 58-13N, longitude: 006-19W, elevation: 9 m

Current weather observation

The report was made 31 minutes ago, at 20:50 UTC
Wind 4 kt from the North/Northwest
Temperature 9°C
Humidity 100%
Pressure 1016 hPa
Visibility: 7000 m
light rain

METAR: EGPO 202050Z AUTO 34004KT 7000 -RA BKN005/// BKN028/// OVC033/// 09/09 Q1016 REDZ

Time: 22:21 (21:21 UTC)

Forecast

The report was made 1 hour and 24 minutes ago, at 19:57 UTC
Forecast valid from 20 at 21 UTC to 21 at 06 UTC
Wind 6 kt from the North
Visibility 10 km or more
Scattered clouds at a height of 1500 ft
Temporary
from 20 at 21 UTC to 21 at 06 UTC
Visibility: 2500 m
Broken clouds at a height of 400 ft
rain, drizzle

TAF: EGPO 201957Z 2021/2106 35006KT 9999 SCT015 TEMPO 2021/2106 2500 RADZ BKN004

Weather observations and forecasts of more than 4000 airports (METAR and TAF reports).

The available stations are represented by yellow and red dots on the map.

Hover mouse over dot to see the name of the station.

Then click to see weather observations and forecasts.

To change the map : click on the green buttons with a black cross to zoom in, on the green button with a dash to zoom out, or on the green arrows for adjacent maps.


METAR-TAF: